createdAt,value
2019-02-12T00:01:57.586Z,2.60
2019-02-12T00:04:28.995Z,2.60
2019-02-12T00:07:00.444Z,2.60
2019-02-12T00:09:31.840Z,2.40
2019-02-12T00:12:03.214Z,2.30
2019-02-12T00:14:34.467Z,2.20
2019-02-12T00:17:05.786Z,2.10
2019-02-12T00:19:40.299Z,1.90
2019-02-12T00:22:11.520Z,1.80
2019-02-12T00:24:43.249Z,1.70
2019-02-12T00:27:14.564Z,1.70
2019-02-12T00:29:49.538Z,1.60
2019-02-12T00:32:20.908Z,1.60
2019-02-12T00:34:52.916Z,1.60
2019-02-12T00:37:30.354Z,1.60
2019-02-12T00:40:02.139Z,1.60
2019-02-12T00:42:33.615Z,1.60
2019-02-12T00:45:06.865Z,1.50
2019-02-12T00:47:38.334Z,1.50
2019-02-12T00:50:11.694Z,1.40
2019-02-12T00:52:43.043Z,1.40
2019-02-12T00:55:14.748Z,1.40
2019-02-12T00:57:46.312Z,1.30
2019-02-12T01:00:17.572Z,1.20
2019-02-12T01:02:48.954Z,1.10
2019-02-12T01:05:20.358Z,1.00
2019-02-12T01:07:51.814Z,0.80
2019-02-12T01:10:25.544Z,0.70
2019-02-12T01:12:57.047Z,0.60
2019-02-12T01:15:28.885Z,0.60
2019-02-12T01:18:04.151Z,0.50
2019-02-12T01:20:35.617Z,0.50
2019-02-12T01:23:06.897Z,0.50
2019-02-12T01:25:38.436Z,0.50
2019-02-12T01:28:09.794Z,0.50
2019-02-12T01:30:41.209Z,0.50
2019-02-12T01:33:12.490Z,0.60
2019-02-12T01:35:43.791Z,0.60
2019-02-12T01:38:15.105Z,0.70
2019-02-12T01:40:46.463Z,0.90
2019-02-12T01:43:17.892Z,0.90
2019-02-12T01:45:49.248Z,1.00
2019-02-12T01:48:20.573Z,0.90
2019-02-12T01:50:51.812Z,0.80
2019-02-12T01:53:23.157Z,0.80
2019-02-12T01:55:54.399Z,0.80
2019-02-12T01:58:25.750Z,0.80
2019-02-12T02:00:57.620Z,0.80
2019-02-12T02:03:29.126Z,0.80
2019-02-12T02:06:01.638Z,0.70
2019-02-12T02:08:32.991Z,0.70
2019-02-12T02:11:05.133Z,0.70
2019-02-12T02:13:36.584Z,0.60
2019-02-12T02:16:07.931Z,0.60
2019-02-12T02:18:39.411Z,0.50
2019-02-12T02:21:10.748Z,0.40
2019-02-12T02:23:42.028Z,0.30
2019-02-12T02:26:13.401Z,0.30
2019-02-12T02:28:44.941Z,0.10
2019-02-12T02:31:16.287Z,0.00
2019-02-12T02:33:50.780Z,0.00
2019-02-12T02:36:22.005Z,-0.10
2019-02-12T02:38:53.289Z,-0.10
2019-02-12T02:41:31.070Z,-0.20
2019-02-12T02:44:02.332Z,-0.20
2019-02-12T02:46:33.648Z,-0.30
2019-02-12T02:49:04.887Z,-0.30
2019-02-12T02:51:36.370Z,-0.40
2019-02-12T02:54:07.670Z,-0.40
2019-02-12T02:56:38.872Z,-0.40
2019-02-12T02:59:10.232Z,-0.40
2019-02-12T03:01:41.692Z,-0.40
2019-02-12T03:04:13.067Z,-0.30
2019-02-12T03:06:46.368Z,-0.30
2019-02-12T03:09:17.425Z,-0.30
2019-02-12T03:11:49.323Z,-0.30
2019-02-12T03:14:20.742Z,-0.40
2019-02-12T03:16:53.288Z,-0.40
2019-02-12T03:19:24.675Z,-0.40
2019-02-12T03:22:03.369Z,-0.50
2019-02-12T03:24:29.424Z,-0.50
2019-02-12T03:27:06.007Z,-0.50
2019-02-12T03:29:37.305Z,-0.60
2019-02-12T03:32:09.005Z,-0.60
2019-02-12T03:34:40.288Z,-0.60
2019-02-12T03:37:11.524Z,-0.60
2019-02-12T03:39:42.930Z,-0.60
2019-02-12T03:42:14.271Z,-0.60
2019-02-12T03:44:45.655Z,-0.70
2019-02-12T03:47:17.033Z,-0.70
2019-02-12T03:49:48.342Z,-0.70
2019-02-12T03:52:20.853Z,-0.80
2019-02-12T03:54:52.254Z,-1.00
2019-02-12T03:57:23.410Z,-1.00
2019-02-12T03:59:54.850Z,-1.10
2019-02-12T04:02:26.251Z,-1.30
2019-02-12T04:04:57.799Z,-1.30
2019-02-12T04:07:29.188Z,-1.30
2019-02-12T04:10:00.710Z,-1.30
2019-02-12T04:12:32.289Z,-1.30
2019-02-12T04:15:03.774Z,-1.30
2019-02-12T04:17:35.013Z,-1.30
2019-02-12T04:20:06.587Z,-1.30
2019-02-12T04:22:38.044Z,-1.30
2019-02-12T04:25:09.343Z,-1.30
2019-02-12T04:27:40.543Z,-1.20
2019-02-12T04:30:11.936Z,-1.20
2019-02-12T04:32:43.305Z,-1.10
2019-02-12T04:35:14.654Z,-1.10
2019-02-12T04:37:46.051Z,-1.10
2019-02-12T04:40:17.374Z,-1.10
2019-02-12T04:42:48.679Z,-1.10
2019-02-12T04:45:19.837Z,-1.10
2019-02-12T04:47:51.168Z,-0.90
2019-02-12T04:50:22.651Z,-0.80
2019-02-12T04:52:54.073Z,-0.80
2019-02-12T04:55:25.396Z,-0.70
2019-02-12T04:57:56.936Z,-0.60
2019-02-12T05:00:28.227Z,-0.70
2019-02-12T05:02:59.645Z,-0.80
2019-02-12T05:05:30.961Z,-0.90
2019-02-12T05:08:02.259Z,-1.00
2019-02-12T05:10:37.641Z,-1.10
2019-02-12T05:13:09.172Z,-1.10
2019-02-12T05:15:40.681Z,-1.30
2019-02-12T05:18:11.975Z,-1.40
2019-02-12T05:20:43.407Z,-1.50
2019-02-12T05:23:14.742Z,-1.60
2019-02-12T05:25:46.145Z,-1.70
2019-02-12T05:28:17.543Z,-1.70
2019-02-12T05:30:49.457Z,-1.70
2019-02-12T05:33:23.595Z,-1.60
2019-02-12T05:35:55.309Z,-1.70
2019-02-12T05:38:26.723Z,-1.80
2019-02-12T05:40:58.481Z,-1.90
2019-02-12T05:43:33.180Z,-2.00
2019-02-12T05:46:05.359Z,-2.10
2019-02-12T05:48:37.233Z,-2.10
2019-02-12T05:51:09.080Z,-2.10
2019-02-12T05:53:40.529Z,-2.00
2019-02-12T05:56:11.887Z,-1.90
2019-02-12T05:58:43.374Z,-1.90
2019-02-12T06:01:16.110Z,-1.90
2019-02-12T06:03:47.593Z,-1.90
2019-02-12T06:06:19.043Z,-1.80
2019-02-12T06:08:50.333Z,-1.70
2019-02-12T06:11:21.774Z,-1.70
2019-02-12T06:13:53.288Z,-1.80
2019-02-12T06:16:24.542Z,-1.90
2019-02-12T06:18:55.901Z,-2.10
2019-02-12T06:21:28.639Z,-2.10
2019-02-12T06:23:59.976Z,-2.20
2019-02-12T06:26:31.314Z,-2.30
2019-02-12T06:29:02.649Z,-2.20
2019-02-12T06:31:37.742Z,-2.20
2019-02-12T06:34:09.140Z,-2.20
2019-02-12T06:36:40.772Z,-2.20
2019-02-12T06:39:12.113Z,-2.20
2019-02-12T06:41:43.942Z,-2.20
2019-02-12T06:44:15.855Z,-2.10
2019-02-12T06:46:47.266Z,-2.00
2019-02-12T06:49:18.580Z,-1.80
2019-02-12T06:51:49.884Z,-1.20
2019-02-12T06:54:24.176Z,-0.50
2019-02-12T06:56:55.350Z,0.30
2019-02-12T06:59:26.774Z,1.10
2019-02-12T07:02:52.756Z,1.80
2019-02-12T07:05:24.506Z,2.30
2019-02-12T07:08:55.874Z,2.70
2019-02-12T07:12:11.170Z,3.00
2019-02-12T07:15:20.794Z,3.60
2019-02-12T07:18:43.064Z,4.30
2019-02-12T07:21:45.154Z,4.60
2019-02-12T07:24:59.783Z,5.20
2019-02-12T07:28:17.682Z,5.40
2019-02-12T07:32:08.848Z,6.10
2019-02-12T07:35:47.783Z,6.30
2019-02-12T07:38:58.624Z,6.80
2019-02-12T07:42:17.808Z,7.90
2019-02-12T07:45:35.379Z,8.70
2019-02-12T07:48:52.394Z,9.00
2019-02-12T07:51:59.721Z,9.00
2019-02-12T07:54:55.064Z,8.70
2019-02-12T07:58:15.286Z,8.60
2019-02-12T08:01:32.636Z,8.60
2019-02-12T08:04:41.008Z,8.90
2019-02-12T08:08:35.990Z,9.10
2019-02-12T08:11:49.271Z,9.30
2019-02-12T08:15:37.100Z,10.20
2019-02-12T08:18:36.635Z,10.50
2019-02-12T08:22:16.423Z,10.50
2019-02-12T08:26:08.647Z,10.40
2019-02-12T08:29:35.430Z,10.20
2019-02-12T08:32:55.608Z,10.50
2019-02-12T08:36:27.409Z,11.00
2019-02-12T08:39:47.659Z,11.00
2019-02-12T08:42:54.010Z,11.30
2019-02-12T08:46:08.896Z,11.40
2019-02-12T08:49:16.589Z,11.90
2019-02-12T08:52:48.569Z,13.00
2019-02-12T08:55:44.859Z,13.40
2019-02-12T08:59:24.630Z,14.00
2019-02-12T09:02:30.926Z,14.30
2019-02-12T09:05:43.072Z,14.70
2019-02-12T09:08:55.414Z,14.40
2019-02-12T09:12:39.788Z,14.10
2019-02-12T09:16:16.112Z,14.40
2019-02-12T09:19:42.097Z,15.10
2019-02-12T09:22:57.098Z,15.70
2019-02-12T09:26:24.577Z,16.30
2019-02-12T09:29:47.051Z,17.00
2019-02-12T09:33:28.298Z,17.70
2019-02-12T09:37:13.582Z,18.50
2019-02-12T09:40:43.760Z,18.50
2019-02-12T09:44:35.977Z,18.40
2019-02-12T09:47:50.198Z,18.80
2019-02-12T09:50:54.094Z,19.10
2019-02-12T09:54:40.605Z,19.20
2019-02-12T09:57:52.177Z,19.30
2019-02-12T10:00:57.378Z,19.70
2019-02-12T10:04:16.364Z,19.70
2019-02-12T10:07:29.268Z,20.10
2019-02-12T10:10:58.259Z,20.40
2019-02-12T10:14:08.179Z,20.30
2019-02-12T10:17:35.379Z,20.10
2019-02-12T10:20:42.131Z,19.70
2019-02-12T10:24:19.335Z,19.20
2019-02-12T10:26:56.250Z,18.80
2019-02-12T10:30:25.398Z,19.10
2019-02-12T10:32:56.869Z,19.40
2019-02-12T10:35:28.533Z,19.50
2019-02-12T10:38:00.131Z,19.60
2019-02-12T10:40:31.596Z,19.50
2019-02-12T10:43:06.504Z,19.30
2019-02-12T10:45:38.051Z,19.50
2019-02-12T10:48:09.668Z,19.40
2019-02-12T10:50:41.002Z,19.20
2019-02-12T10:53:15.555Z,19.10
2019-02-12T10:55:47.187Z,18.70
2019-02-12T10:58:19.569Z,19.00
2019-02-12T11:00:51.562Z,19.10
2019-02-12T11:03:23.720Z,19.30
2019-02-12T11:05:55.195Z,19.20
2019-02-12T11:08:27.416Z,19.40
2019-02-12T11:10:59.254Z,19.30
2019-02-12T11:13:31.165Z,19.30
2019-02-12T11:16:06.787Z,19.80
2019-02-12T11:18:38.302Z,19.90
2019-02-12T11:21:12.096Z,20.00
2019-02-12T11:23:43.385Z,20.00
2019-02-12T11:26:14.989Z,20.60
2019-02-12T11:28:46.335Z,20.80
2019-02-12T11:31:18.068Z,20.60
2019-02-12T11:33:49.662Z,20.60
2019-02-12T11:36:21.060Z,20.90
2019-02-12T11:38:53.009Z,21.00
2019-02-12T11:41:24.497Z,20.60
2019-02-12T11:43:55.928Z,20.30
2019-02-12T11:46:27.408Z,20.60
2019-02-12T11:48:58.979Z,20.70
2019-02-12T11:51:30.624Z,20.70
2019-02-12T11:54:02.109Z,20.60
2019-02-12T11:56:33.710Z,20.40
2019-02-12T11:59:05.027Z,20.40
2019-02-12T12:01:36.511Z,20.80
2019-02-12T12:04:08.906Z,20.70
2019-02-12T12:06:40.427Z,20.80
2019-02-12T12:09:11.911Z,20.40
2019-02-12T12:11:43.641Z,20.50
2019-02-12T12:14:14.964Z,20.70
2019-02-12T12:16:46.250Z,21.00
2019-02-12T12:19:17.693Z,21.00
2019-02-12T12:21:49.190Z,21.10
2019-02-12T12:24:21.106Z,21.30
2019-02-12T12:26:53.333Z,20.40
2019-02-12T12:29:24.612Z,20.20
2019-02-12T12:31:56.012Z,20.20
2019-02-12T12:34:27.480Z,20.10
2019-02-12T12:36:58.873Z,20.80
2019-02-12T12:39:30.818Z,20.10
2019-02-12T12:42:02.268Z,20.10
2019-02-12T12:44:33.809Z,20.10
2019-02-12T12:47:05.434Z,20.20
2019-02-12T12:49:36.856Z,20.20
2019-02-12T12:52:10.665Z,20.00
2019-02-12T12:54:42.159Z,19.80
2019-02-12T12:57:13.872Z,19.90
2019-02-12T12:59:45.683Z,20.40
2019-02-12T13:02:17.564Z,20.70
2019-02-12T13:04:49.023Z,20.80
2019-02-12T13:07:20.648Z,20.80
2019-02-12T13:09:52.044Z,21.10
2019-02-12T13:12:24.195Z,21.10
2019-02-12T13:14:55.867Z,20.60
2019-02-12T13:17:27.376Z,20.10
2019-02-12T13:19:58.940Z,19.90
2019-02-12T13:22:30.306Z,19.50
2019-02-12T13:25:08.295Z,19.50
2019-02-12T13:27:35.022Z,19.80
2019-02-12T13:30:08.162Z,19.60
2019-02-12T13:32:39.786Z,19.90
2019-02-12T13:35:12.569Z,20.10
2019-02-12T13:37:44.096Z,20.30
2019-02-12T13:40:15.817Z,20.50
2019-02-12T13:42:47.298Z,20.60
2019-02-12T13:45:19.054Z,20.70
2019-02-12T13:47:50.528Z,20.70
2019-02-12T13:50:21.969Z,20.50
2019-02-12T13:52:53.512Z,20.60
2019-02-12T13:55:24.965Z,20.50
2019-02-12T13:57:56.442Z,20.00
2019-02-12T14:00:28.008Z,20.20
2019-02-12T14:02:59.396Z,20.20
2019-02-12T14:05:30.862Z,20.10
2019-02-12T14:08:06.508Z,19.90
2019-02-12T14:10:36.126Z,20.10
2019-02-12T14:13:07.836Z,20.20
2019-02-12T14:15:39.119Z,20.50
2019-02-12T14:18:11.560Z,20.10
2019-02-12T14:20:43.039Z,20.30
2019-02-12T14:23:15.471Z,20.20
2019-02-12T14:26:01.040Z,20.50
2019-02-12T14:28:28.232Z,20.00
2019-02-12T14:31:02.774Z,19.90
2019-02-12T14:33:34.555Z,20.00
2019-02-12T14:36:09.551Z,20.20
2019-02-12T14:38:41.689Z,20.50
2019-02-12T14:41:13.138Z,20.80
2019-02-12T14:43:44.934Z,20.20
2019-02-12T14:46:17.845Z,20.20
2019-02-12T14:48:52.924Z,20.10
2019-02-12T14:51:24.638Z,20.40
2019-02-12T14:53:56.541Z,20.50
2019-02-12T14:56:29.029Z,20.20
2019-02-12T14:59:00.380Z,19.70
2019-02-12T15:01:33.189Z,19.20
2019-02-12T15:04:04.744Z,19.20
2019-02-12T15:06:36.383Z,19.00
2019-02-12T15:09:09.388Z,18.90
2019-02-12T15:11:41.122Z,18.60
2019-02-12T15:14:12.588Z,18.70
2019-02-12T15:16:44.050Z,18.90
2019-02-12T15:19:15.821Z,18.70
2019-02-12T15:21:47.344Z,18.80
2019-02-12T15:24:19.381Z,18.80
2019-02-12T15:26:51.392Z,18.50
2019-02-12T15:29:25.065Z,18.50
2019-02-12T15:31:56.546Z,18.40
2019-02-12T15:34:29.782Z,18.40
2019-02-12T15:37:01.444Z,18.40
2019-02-12T15:39:34.067Z,18.40
2019-02-12T15:42:05.624Z,18.10
2019-02-12T15:44:38.253Z,17.70
2019-02-12T15:47:09.846Z,17.40
2019-02-12T15:49:41.456Z,17.10
2019-02-12T15:52:15.585Z,17.20
2019-02-12T15:54:47.428Z,17.20
2019-02-12T15:57:18.863Z,16.70
2019-02-12T15:59:52.140Z,16.20
2019-02-12T16:02:23.844Z,16.00
2019-02-12T16:04:57.328Z,15.90
2019-02-12T16:07:29.368Z,15.70
2019-02-12T16:10:10.281Z,15.50
2019-02-12T16:12:42.278Z,15.00
2019-02-12T16:15:16.716Z,14.70
2019-02-12T16:17:48.387Z,14.40
2019-02-12T16:20:20.844Z,14.10
2019-02-12T16:22:52.390Z,13.80
2019-02-12T16:25:24.049Z,13.60
2019-02-12T16:27:55.553Z,13.40
2019-02-12T16:30:27.089Z,13.10
2019-02-12T16:32:58.704Z,12.70
2019-02-12T16:35:30.312Z,12.40
2019-02-12T16:38:01.984Z,12.10
2019-02-12T16:40:33.599Z,11.80
2019-02-12T16:43:05.593Z,11.60
2019-02-12T16:46:03.792Z,11.40
2019-02-12T16:48:36.261Z,11.20
2019-02-12T16:51:07.725Z,10.70
2019-02-12T16:53:40.421Z,10.40
2019-02-12T16:56:12.110Z,10.00
2019-02-12T16:58:43.839Z,9.90
2019-02-12T17:01:15.378Z,9.60
2019-02-12T17:03:47.972Z,9.50
2019-02-12T17:06:19.861Z,9.30
2019-02-12T17:08:52.715Z,9.20
2019-02-12T17:11:25.357Z,9.10
2019-02-12T17:13:57.197Z,8.90
2019-02-12T17:16:29.255Z,8.70
2019-02-12T17:19:10.930Z,8.50
2019-02-12T17:21:45.116Z,8.30
2019-02-12T17:24:17.684Z,8.20
2019-02-12T17:26:49.483Z,8.10
2019-02-12T17:29:21.070Z,8.00
2019-02-12T17:31:53.194Z,7.90
2019-02-12T17:34:25.842Z,7.80
2019-02-12T17:36:57.678Z,7.60
2019-02-12T17:39:29.438Z,7.50
2019-02-12T17:42:05.096Z,7.40
2019-02-12T17:44:39.733Z,7.30
2019-02-12T17:47:15.369Z,7.20
2019-02-12T17:49:47.863Z,7.10
2019-02-12T17:52:21.067Z,7.00
2019-02-12T17:54:55.030Z,6.90
2019-02-12T17:57:27.754Z,6.80
2019-02-12T18:00:01.023Z,6.60
2019-02-12T18:02:33.867Z,6.50
2019-02-12T18:05:06.769Z,6.40
2019-02-12T18:07:39.495Z,6.30
2019-02-12T18:10:13.095Z,6.20
2019-02-12T18:12:45.879Z,6.00
2019-02-12T18:15:19.949Z,5.70
2019-02-12T18:17:52.753Z,5.60
2019-02-12T18:20:26.782Z,5.50
2019-02-12T18:23:02.496Z,5.40
2019-02-12T18:25:35.901Z,5.40
2019-02-12T18:28:12.298Z,5.40
2019-02-12T18:30:45.010Z,5.40
2019-02-12T18:33:17.839Z,5.50
2019-02-12T18:35:51.615Z,5.40
2019-02-12T18:38:24.277Z,5.40
2019-02-12T18:40:58.407Z,5.30
2019-02-12T18:43:34.113Z,5.30
2019-02-12T18:46:06.807Z,5.20
2019-02-12T18:48:42.905Z,5.10
2019-02-12T18:51:15.912Z,5.00
2019-02-12T18:53:48.569Z,4.90
2019-02-12T18:56:21.715Z,4.80
2019-02-12T18:58:54.763Z,4.70
2019-02-12T19:01:27.390Z,4.70
2019-02-12T19:04:00.071Z,4.60
2019-02-12T19:06:32.733Z,4.50
2019-02-12T19:09:07.785Z,4.40
2019-02-12T19:11:52.665Z,4.30
2019-02-12T19:14:15.508Z,4.10
2019-02-12T19:16:48.104Z,3.90
2019-02-12T19:19:20.803Z,3.80
2019-02-12T19:21:53.511Z,3.60
2019-02-12T19:24:29.380Z,3.60
2019-02-12T19:27:02.484Z,3.60
2019-02-12T19:29:35.264Z,3.50
2019-02-12T19:32:07.823Z,3.50
2019-02-12T19:34:40.969Z,3.40
2019-02-12T19:37:13.927Z,3.40
2019-02-12T19:39:46.761Z,3.50
2019-02-12T19:42:19.430Z,3.50
2019-02-12T19:44:52.544Z,3.60
2019-02-12T19:47:26.131Z,3.80
2019-02-12T19:49:59.081Z,3.70
2019-02-12T19:52:32.702Z,3.50
2019-02-12T19:55:06.100Z,3.20
2019-02-12T19:57:38.925Z,3.00
2019-02-12T20:00:17.539Z,2.90
2019-02-12T20:02:50.346Z,2.90
2019-02-12T20:05:23.767Z,2.80
2019-02-12T20:07:56.903Z,2.70
2019-02-12T20:10:31.910Z,2.70
2019-02-12T20:13:08.575Z,2.70
2019-02-12T20:15:51.871Z,2.60
2019-02-12T20:18:24.830Z,2.60
2019-02-12T20:20:57.547Z,2.70
2019-02-12T20:23:32.007Z,2.60
2019-02-12T20:26:05.139Z,2.50
2019-02-12T20:28:39.702Z,2.50
2019-02-12T20:31:12.553Z,2.50
2019-02-12T20:33:47.003Z,2.50
2019-02-12T20:36:19.837Z,2.40
2019-02-12T20:38:56.895Z,2.20
2019-02-12T20:41:30.485Z,2.00
2019-02-12T20:44:03.204Z,1.80
2019-02-12T20:46:36.485Z,1.70
2019-02-12T20:49:09.297Z,1.60
2019-02-12T20:51:42.187Z,1.60
2019-02-12T20:54:14.800Z,1.50
2019-02-12T20:56:57.785Z,1.40
2019-02-12T20:59:30.458Z,1.40
2019-02-12T21:02:03.283Z,1.40
2019-02-12T21:04:36.687Z,1.40
2019-02-12T21:07:09.846Z,1.40
2019-02-12T21:09:43.303Z,1.40
2019-02-12T21:12:33.737Z,1.30
2019-02-12T21:15:06.863Z,1.30
2019-02-12T21:17:39.701Z,1.30
2019-02-12T21:20:12.940Z,1.20
2019-02-12T21:22:45.868Z,1.30
2019-02-12T21:25:18.876Z,1.30
2019-02-12T21:27:51.257Z,1.40
2019-02-12T21:30:24.610Z,1.60
2019-02-12T21:32:57.131Z,1.60
2019-02-12T21:35:29.441Z,1.60
2019-02-12T21:38:02.211Z,1.60
2019-02-12T21:40:34.272Z,1.50
2019-02-12T21:43:06.789Z,1.50
2019-02-12T21:45:38.560Z,1.50
2019-02-12T21:48:10.757Z,1.40
2019-02-12T21:50:43.463Z,1.40
2019-02-12T21:53:15.631Z,1.30
2019-02-12T21:55:47.457Z,1.10
2019-02-12T21:58:19.268Z,1.00
2019-02-12T22:00:52.112Z,0.80
2019-02-12T22:03:23.963Z,0.80
2019-02-12T22:05:55.990Z,0.70
2019-02-12T22:08:27.606Z,0.80
2019-02-12T22:10:59.439Z,0.70
2019-02-12T22:13:31.730Z,0.80
2019-02-12T22:16:03.605Z,0.80
2019-02-12T22:18:35.543Z,0.80
2019-02-12T22:21:07.312Z,0.70
2019-02-12T22:23:43.174Z,0.60
2019-02-12T22:26:14.758Z,0.60
2019-02-12T22:28:47.059Z,0.50
2019-02-12T22:31:18.451Z,0.30
2019-02-12T22:33:54.100Z,0.20
2019-02-12T22:36:25.885Z,0.10
2019-02-12T22:38:57.476Z,0.10
2019-02-12T22:41:29.565Z,0.00
2019-02-12T22:44:01.665Z,-0.10
2019-02-12T22:46:33.369Z,-0.20
2019-02-12T22:49:05.117Z,-0.20
2019-02-12T22:51:36.853Z,-0.20
2019-02-12T22:54:08.873Z,-0.30
2019-02-12T22:56:40.771Z,-0.30
2019-02-12T22:59:12.746Z,-0.40
2019-02-12T23:01:44.532Z,-0.50
2019-02-12T23:04:17.455Z,-0.50
2019-02-12T23:06:49.588Z,-0.40
2019-02-12T23:09:22.448Z,-0.40
2019-02-12T23:11:54.590Z,-0.30
2019-02-12T23:14:27.318Z,-0.10
2019-02-12T23:16:58.858Z,-0.10
2019-02-12T23:19:30.600Z,0.00
2019-02-12T23:22:02.223Z,0.00
2019-02-12T23:24:33.736Z,0.00
2019-02-12T23:27:05.390Z,-0.10
2019-02-12T23:29:36.884Z,-0.10
2019-02-12T23:32:08.460Z,-0.30
2019-02-12T23:34:39.766Z,-0.40
2019-02-12T23:37:11.403Z,-0.50
2019-02-12T23:39:42.828Z,-0.50
2019-02-12T23:42:14.763Z,-0.60
2019-02-12T23:44:46.191Z,-0.60
2019-02-12T23:47:18.092Z,-0.60
2019-02-12T23:49:49.957Z,-0.70
2019-02-12T23:52:21.516Z,-0.80
2019-02-12T23:54:52.985Z,-0.90
2019-02-12T23:57:24.425Z,-0.90
2019-02-12T23:59:56.336Z,-0.90
